createdAt,value
2023-05-12T00:00:22.004Z,15.28
2023-05-12T00:03:12.782Z,15.34
2023-05-12T00:05:43.455Z,15.39
2023-05-12T00:08:13.705Z,15.43
2023-05-12T00:10:44.005Z,15.46
2023-05-12T00:13:15.090Z,15.50
2023-05-12T00:15:45.943Z,15.53
2023-05-12T00:18:16.342Z,15.56
2023-05-12T00:20:46.677Z,15.59
2023-05-12T00:23:17.407Z,15.61
2023-05-12T00:25:48.138Z,15.61
2023-05-12T00:28:19.417Z,15.61
2023-05-12T00:30:50.020Z,15.61
2023-05-12T00:33:20.164Z,15.60
2023-05-12T00:35:50.668Z,15.58
2023-05-12T00:38:20.934Z,15.55
2023-05-12T00:40:51.277Z,15.54
2023-05-12T00:43:21.360Z,15.52
2023-05-12T00:45:51.751Z,15.48
2023-05-12T00:48:22.399Z,15.42
2023-05-12T00:50:52.872Z,15.40
2023-05-12T00:53:23.358Z,15.41
2023-05-12T00:55:54.230Z,15.42
2023-05-12T00:58:24.518Z,15.42
2023-05-12T01:00:55.329Z,15.43
2023-05-12T01:03:26.034Z,15.43
2023-05-12T01:05:59.535Z,15.44
2023-05-12T01:08:30.317Z,15.44
2023-05-12T01:11:00.637Z,15.46
2023-05-12T01:13:31.591Z,15.47
2023-05-12T01:16:04.184Z,15.47
2023-05-12T01:18:35.827Z,15.48
2023-05-12T01:21:06.890Z,15.49
2023-05-12T01:23:41.026Z,15.50
2023-05-12T01:26:11.769Z,15.49
2023-05-12T01:28:42.905Z,15.47
2023-05-12T01:31:13.421Z,15.44
2023-05-12T01:33:43.871Z,15.39
2023-05-12T01:36:14.153Z,15.35
2023-05-12T01:38:44.733Z,15.32
2023-05-12T01:41:15.092Z,15.31
2023-05-12T01:43:45.954Z,15.34
2023-05-12T01:46:16.801Z,15.38
2023-05-12T01:48:47.796Z,15.41
2023-05-12T01:51:18.907Z,15.45
2023-05-12T01:53:49.315Z,15.50
2023-05-12T01:56:21.538Z,15.54
2023-05-12T01:58:51.970Z,15.57
2023-05-12T02:01:24.837Z,15.60
2023-05-12T02:03:56.149Z,15.61
2023-05-12T02:06:26.809Z,15.63
2023-05-12T02:08:57.982Z,15.64
2023-05-12T02:11:30.693Z,15.65
2023-05-12T02:14:01.271Z,15.65
2023-05-12T02:16:36.588Z,15.67
2023-05-12T02:19:08.452Z,15.67
2023-05-12T02:21:39.630Z,15.67
2023-05-12T02:24:14.224Z,15.66
2023-05-12T02:26:45.187Z,15.66
2023-05-12T02:29:15.745Z,15.65
2023-05-12T02:31:46.535Z,15.65
2023-05-12T02:34:17.490Z,15.66
2023-05-12T02:36:47.836Z,15.66
2023-05-12T02:39:18.238Z,15.66
2023-05-12T02:41:49.252Z,15.65
2023-05-12T02:44:22.344Z,15.66
2023-05-12T02:46:53.771Z,15.60
2023-05-12T02:49:24.751Z,15.58
2023-05-12T02:51:55.567Z,15.59
2023-05-12T02:54:26.370Z,15.58
2023-05-12T02:56:58.620Z,15.59
2023-05-12T02:59:30.307Z,15.62
2023-05-12T03:02:01.290Z,15.67
2023-05-12T03:04:33.155Z,15.70
2023-05-12T03:07:03.749Z,15.70
2023-05-12T03:09:34.198Z,15.71
2023-05-12T03:12:05.239Z,15.74
2023-05-12T03:14:35.473Z,15.77
2023-05-12T03:17:06.907Z,15.80
2023-05-12T03:19:37.470Z,15.81
2023-05-12T03:22:07.958Z,15.84
2023-05-12T03:24:38.067Z,15.90
2023-05-12T03:27:09.757Z,15.96
2023-05-12T03:29:40.394Z,16.04
2023-05-12T03:32:11.120Z,16.11
2023-05-12T03:34:41.733Z,16.19
2023-05-12T03:37:12.420Z,16.26
2023-05-12T03:39:43.357Z,16.33
2023-05-12T03:42:15.918Z,16.39
2023-05-12T03:44:46.409Z,16.43
2023-05-12T03:47:16.703Z,16.47
2023-05-12T03:49:47.212Z,16.51
2023-05-12T03:52:17.628Z,16.55
2023-05-12T03:54:47.945Z,16.58
2023-05-12T03:57:18.333Z,16.60
2023-05-12T03:59:48.800Z,16.61
2023-05-12T04:02:19.112Z,16.61
2023-05-12T04:04:49.833Z,16.60
2023-05-12T04:07:20.523Z,16.58
2023-05-12T04:09:52.032Z,16.57
2023-05-12T04:12:22.440Z,16.58
2023-05-12T04:14:53.504Z,16.60
2023-05-12T04:17:27.099Z,16.59
2023-05-12T04:19:58.077Z,16.60
2023-05-12T04:22:28.440Z,16.61
2023-05-12T04:24:59.497Z,16.61
2023-05-12T04:27:29.991Z,16.59
2023-05-12T04:30:00.450Z,16.58
2023-05-12T04:32:31.560Z,16.59
2023-05-12T04:35:02.174Z,16.62
2023-05-12T04:37:32.495Z,16.63
2023-05-12T04:40:04.420Z,16.65
2023-05-12T04:42:34.886Z,16.67
2023-05-12T04:45:06.988Z,16.64
2023-05-12T04:47:37.396Z,16.64
2023-05-12T04:50:10.834Z,16.68
2023-05-12T04:52:41.628Z,16.70
2023-05-12T04:55:15.805Z,16.68
2023-05-12T04:57:49.291Z,16.65
2023-05-12T05:00:22.323Z,16.62
2023-05-12T05:02:53.038Z,16.55
2023-05-12T05:05:23.664Z,16.47
2023-05-12T05:07:54.059Z,16.38
2023-05-12T05:10:25.284Z,16.31
2023-05-12T05:12:55.827Z,16.30
2023-05-12T05:15:26.706Z,16.31
2023-05-12T05:17:57.533Z,16.30
2023-05-12T05:20:29.322Z,16.30
2023-05-12T05:23:02.180Z,16.33
2023-05-12T05:25:32.889Z,16.34
2023-05-12T05:28:03.099Z,16.35
2023-05-12T05:30:33.594Z,16.36
2023-05-12T05:33:04.242Z,16.35
2023-05-12T05:35:34.523Z,16.34
2023-05-12T05:38:06.052Z,16.36
2023-05-12T05:40:49.291Z,16.37
2023-05-12T05:43:22.300Z,16.42
2023-05-12T05:45:55.579Z,16.46
2023-05-12T05:48:27.791Z,16.48
2023-05-12T05:50:58.173Z,16.44
2023-05-12T05:53:29.145Z,16.36
2023-05-12T05:55:59.617Z,16.33
2023-05-12T05:58:31.024Z,16.35
2023-05-12T06:01:10.008Z,16.37
2023-05-12T06:03:40.435Z,16.43
2023-05-12T06:06:10.958Z,16.48
2023-05-12T06:08:43.124Z,16.53
2023-05-12T06:11:15.902Z,16.56
2023-05-12T06:13:47.740Z,16.61
2023-05-12T06:16:18.721Z,16.68
2023-05-12T06:18:49.856Z,16.74
2023-05-12T06:21:20.363Z,16.77
2023-05-12T06:23:51.575Z,16.82
2023-05-12T06:26:23.610Z,16.85
2023-05-12T06:28:54.040Z,16.91
2023-05-12T06:31:24.702Z,16.98
2023-05-12T06:33:55.704Z,17.04
2023-05-12T06:36:26.268Z,17.11
2023-05-12T06:38:59.296Z,17.19
2023-05-12T06:41:29.872Z,17.27
2023-05-12T06:44:02.143Z,17.34
2023-05-12T06:46:33.072Z,17.39
2023-05-12T06:49:07.116Z,17.41
2023-05-12T06:51:37.925Z,17.41
2023-05-12T06:54:08.960Z,17.39
2023-05-12T06:56:41.106Z,17.40
2023-05-12T06:59:12.328Z,17.43
2023-05-12T07:01:43.388Z,17.45
2023-05-12T07:04:14.067Z,17.41
2023-05-12T07:06:45.037Z,17.37
2023-05-12T07:09:15.205Z,17.35
2023-05-12T07:11:49.858Z,17.35
2023-05-12T07:14:20.594Z,17.39
2023-05-12T07:16:51.471Z,17.44
2023-05-12T07:19:22.246Z,17.43
2023-05-12T07:21:53.586Z,17.44
2023-05-12T07:24:23.928Z,17.51
2023-05-12T07:26:54.498Z,17.58
2023-05-12T07:29:29.834Z,17.67
2023-05-12T07:32:00.183Z,17.77
2023-05-12T07:34:30.533Z,17.81
2023-05-12T07:37:03.829Z,17.86
2023-05-12T07:39:35.325Z,17.89
2023-05-12T07:42:07.314Z,17.88
2023-05-12T07:44:38.911Z,17.86
2023-05-12T07:47:09.497Z,17.86
2023-05-12T07:49:39.941Z,17.88
2023-05-12T07:52:10.471Z,17.86
2023-05-12T07:54:41.280Z,17.90
2023-05-12T07:57:12.071Z,17.93
2023-05-12T07:59:42.756Z,17.97
2023-05-12T08:02:13.470Z,18.02
2023-05-12T08:04:44.571Z,18.06
2023-05-12T08:07:15.450Z,18.09
2023-05-12T08:09:46.119Z,18.11
2023-05-12T08:12:16.811Z,18.06
2023-05-12T08:14:47.146Z,18.02
2023-05-12T08:17:18.596Z,18.01
2023-05-12T08:19:49.208Z,17.99
2023-05-12T08:22:21.405Z,17.95
2023-05-12T08:24:53.395Z,17.88
2023-05-12T08:27:27.616Z,17.85
2023-05-12T08:30:01.419Z,17.87
2023-05-12T08:32:41.016Z,17.87
2023-05-12T08:35:16.191Z,17.85
2023-05-12T08:37:50.589Z,17.82
2023-05-12T08:40:26.273Z,17.74
2023-05-12T08:43:06.490Z,17.63
2023-05-12T08:45:39.794Z,17.62
2023-05-12T08:48:11.672Z,17.72
2023-05-12T08:50:44.703Z,17.73
2023-05-12T08:53:23.813Z,17.64
2023-05-12T08:59:42.276Z,17.54
2023-05-12T09:02:53.991Z,17.66
2023-05-12T09:05:34.896Z,17.65
2023-05-12T09:08:13.970Z,17.60
2023-05-12T09:10:52.127Z,17.59
2023-05-12T09:13:49.782Z,17.63
2023-05-12T09:16:25.165Z,17.62
2023-05-12T09:18:57.253Z,17.61
2023-05-12T09:21:32.048Z,17.54
2023-05-12T09:24:10.366Z,17.48
2023-05-12T09:26:52.891Z,17.45
2023-05-12T09:29:37.506Z,17.44
2023-05-12T09:32:40.613Z,17.39
2023-05-12T09:35:24.112Z,17.32
2023-05-12T09:38:01.682Z,17.23
2023-05-12T09:40:40.409Z,17.20
2023-05-12T09:43:22.892Z,17.19
2023-05-12T09:45:57.643Z,17.19
2023-05-12T09:48:29.033Z,17.22
2023-05-12T09:51:03.191Z,17.33
2023-05-12T09:53:34.658Z,17.46
2023-05-12T09:56:12.776Z,17.63
2023-05-12T09:58:51.667Z,17.78
2023-05-12T10:01:24.234Z,17.88
2023-05-12T10:03:59.343Z,17.93
2023-05-12T10:06:40.967Z,17.87
2023-05-12T10:09:47.894Z,17.85
2023-05-12T10:12:19.337Z,17.81
2023-05-12T10:14:51.444Z,17.79
2023-05-12T10:17:23.735Z,17.83
2023-05-12T10:19:54.795Z,17.80
2023-05-12T10:22:33.828Z,17.70
2023-05-12T10:25:12.050Z,17.66
2023-05-12T10:27:48.461Z,17.63
2023-05-12T10:30:20.466Z,17.63
2023-05-12T10:32:53.646Z,17.60
2023-05-12T10:35:49.755Z,17.51
2023-05-12T10:38:23.508Z,17.42
2023-05-12T10:41:04.690Z,17.31
2023-05-12T10:43:42.834Z,17.28
2023-05-12T10:46:23.325Z,17.34
2023-05-12T10:49:00.537Z,17.33
2023-05-12T10:51:35.979Z,17.33
2023-05-12T10:54:09.243Z,17.36
2023-05-12T10:56:45.696Z,17.33
2023-05-12T10:59:30.811Z,17.28
2023-05-12T11:02:05.438Z,17.17
2023-05-12T11:05:01.102Z,17.09
2023-05-12T11:07:37.400Z,17.02
2023-05-12T11:10:13.500Z,17.00
2023-05-12T11:12:46.661Z,17.02
2023-05-12T11:15:18.871Z,17.02
2023-05-12T11:17:54.849Z,16.99
2023-05-12T11:20:27.573Z,16.99
2023-05-12T11:23:01.672Z,17.02
2023-05-12T11:25:35.539Z,17.06
2023-05-12T11:28:07.453Z,17.11
2023-05-12T11:31:01.016Z,17.10
2023-05-12T11:33:38.101Z,17.12
2023-05-12T11:36:12.685Z,17.14
2023-05-12T11:38:52.732Z,17.14
2023-05-12T11:41:27.776Z,17.15
2023-05-12T11:43:58.526Z,17.18
2023-05-12T11:46:32.236Z,17.23
2023-05-12T11:49:04.013Z,17.30
2023-05-12T11:51:34.668Z,17.29
2023-05-12T11:54:05.517Z,17.25
2023-05-12T11:56:36.215Z,17.21
2023-05-12T11:59:07.310Z,17.14
2023-05-12T12:01:47.537Z,17.13
2023-05-12T12:04:19.758Z,17.18
2023-05-12T12:06:54.017Z,17.18
2023-05-12T12:09:32.399Z,17.20
2023-05-12T12:12:08.143Z,17.26
2023-05-12T12:14:43.040Z,17.31
2023-05-12T12:17:15.059Z,17.33
2023-05-12T12:19:49.448Z,17.33
2023-05-12T12:22:21.945Z,17.34
2023-05-12T12:24:52.215Z,17.40
2023-05-12T12:27:22.589Z,17.47
2023-05-12T12:29:55.673Z,17.53
2023-05-12T12:32:31.682Z,17.60
2023-05-12T12:35:06.258Z,17.67
2023-05-12T12:37:37.392Z,17.74
2023-05-12T12:40:09.994Z,17.78
2023-05-12T12:42:41.058Z,17.72
2023-05-12T12:45:13.438Z,17.61
2023-05-12T12:47:46.156Z,17.53
2023-05-12T12:50:16.960Z,17.44
2023-05-12T12:52:49.142Z,17.35
2023-05-12T12:55:20.772Z,17.28
2023-05-12T12:57:51.407Z,17.19
2023-05-12T13:00:23.963Z,17.12
2023-05-12T13:02:54.648Z,17.09
2023-05-12T13:05:28.029Z,17.05
2023-05-12T13:07:58.306Z,17.00
2023-05-12T13:10:33.814Z,16.94
2023-05-12T13:13:05.089Z,16.85
2023-05-12T13:15:35.764Z,16.76
2023-05-12T13:18:08.789Z,16.77
2023-05-12T13:20:39.295Z,16.81
2023-05-12T13:23:10.644Z,16.75
2023-05-12T13:25:44.734Z,16.67
2023-05-12T13:28:20.438Z,16.55
2023-05-12T13:31:08.792Z,16.42
2023-05-12T13:33:45.157Z,16.27
2023-05-12T13:36:22.155Z,16.18
2023-05-12T13:39:06.475Z,16.07
2023-05-12T13:41:45.900Z,16.01
2023-05-12T13:44:24.731Z,16.03
2023-05-12T13:46:56.485Z,16.12
2023-05-12T13:49:29.966Z,16.21
2023-05-12T13:52:04.319Z,16.31
2023-05-12T13:54:38.309Z,16.40
2023-05-12T13:57:13.039Z,16.49
2023-05-12T13:59:54.290Z,16.55
2023-05-12T14:02:26.776Z,16.60
2023-05-12T14:05:02.039Z,16.63
2023-05-12T14:07:32.747Z,16.64
2023-05-12T14:10:07.151Z,16.65
2023-05-12T14:12:41.069Z,16.67
2023-05-12T14:15:26.570Z,16.68
2023-05-12T14:18:07.395Z,16.69
2023-05-12T14:21:03.632Z,16.73
2023-05-12T14:23:36.387Z,16.80
2023-05-12T14:26:12.529Z,16.88
2023-05-12T14:28:45.904Z,16.96
2023-05-12T14:31:18.981Z,17.03
2023-05-12T14:33:50.931Z,17.13
2023-05-12T14:36:54.088Z,17.19
2023-05-12T14:39:48.333Z,17.21
2023-05-12T14:42:29.451Z,17.20
2023-05-12T14:45:34.366Z,17.17
2023-05-12T14:48:15.087Z,17.12
2023-05-12T14:50:56.797Z,17.13
2023-05-12T14:53:30.264Z,17.14
2023-05-12T14:56:05.983Z,17.14
2023-05-12T14:58:36.780Z,17.17
2023-05-12T15:01:09.340Z,17.17
2023-05-12T15:03:43.112Z,17.16
2023-05-12T15:06:16.548Z,17.16
2023-05-12T15:08:47.449Z,17.17
2023-05-12T15:11:22.512Z,17.17
2023-05-12T15:13:55.996Z,17.13
2023-05-12T15:19:15.084Z,17.05
2023-05-12T15:22:00.465Z,17.05
2023-05-12T15:24:34.864Z,17.08
2023-05-12T15:27:07.816Z,17.11
2023-05-12T15:29:41.567Z,17.11
2023-05-12T15:32:14.496Z,17.04
2023-05-12T15:34:45.051Z,16.96
2023-05-12T15:37:15.830Z,16.89
2023-05-12T15:39:53.416Z,16.83
2023-05-12T15:42:32.358Z,16.74
2023-05-12T15:45:10.782Z,16.68
2023-05-12T15:47:41.430Z,16.67
2023-05-12T15:50:20.359Z,16.67
2023-05-12T15:52:54.474Z,16.66
2023-05-12T15:55:30.321Z,16.67
2023-05-12T15:58:01.305Z,16.63
2023-05-12T16:00:31.861Z,16.62
2023-05-12T16:03:02.959Z,16.65
2023-05-12T16:05:37.483Z,16.71
2023-05-12T16:08:08.247Z,16.77
2023-05-12T16:10:38.610Z,16.81
2023-05-12T16:13:09.635Z,16.83
2023-05-12T16:15:40.085Z,16.84
2023-05-12T16:18:11.514Z,16.85
2023-05-12T16:20:43.249Z,16.88
2023-05-12T16:23:15.443Z,16.88
2023-05-12T16:25:46.523Z,16.91
2023-05-12T16:28:17.158Z,16.95
2023-05-12T16:30:48.899Z,16.98
2023-05-12T16:33:19.510Z,17.00
2023-05-12T16:35:50.498Z,17.02
2023-05-12T16:38:20.911Z,17.05
2023-05-12T16:40:51.859Z,17.05
2023-05-12T16:43:22.856Z,17.06
2023-05-12T16:46:01.606Z,17.06
2023-05-12T16:48:34.870Z,17.08
2023-05-12T16:51:07.958Z,17.10
2023-05-12T16:53:39.272Z,17.12
2023-05-12T16:56:10.046Z,17.13
2023-05-12T16:58:42.234Z,17.15
2023-05-12T17:01:12.820Z,17.18
2023-05-12T17:03:43.742Z,17.21
2023-05-12T17:06:14.907Z,17.21
2023-05-12T17:08:45.435Z,17.20
2023-05-12T17:11:21.777Z,17.16
2023-05-12T17:13:53.628Z,17.11
2023-05-12T17:16:24.282Z,17.09
2023-05-12T17:21:29.606Z,16.99
2023-05-12T17:24:00.581Z,16.93
2023-05-12T17:26:31.138Z,16.91
2023-05-12T17:29:02.264Z,16.90
2023-05-12T17:31:34.158Z,16.86
2023-05-12T17:34:04.642Z,16.84
2023-05-12T17:36:40.241Z,16.85
2023-05-12T17:39:13.903Z,16.88
2023-05-12T17:41:44.976Z,16.89
2023-05-12T17:44:15.381Z,16.92
2023-05-12T17:46:49.298Z,16.94
2023-05-12T17:49:25.162Z,16.95
2023-05-12T17:51:58.924Z,16.93
2023-05-12T17:54:36.065Z,16.92
2023-05-12T17:57:07.421Z,16.90
2023-05-12T17:59:40.037Z,16.90
2023-05-12T18:02:13.779Z,16.93
2023-05-12T18:04:44.779Z,16.97
2023-05-12T18:07:15.869Z,17.00
2023-05-12T18:09:49.075Z,17.01
2023-05-12T18:12:22.166Z,17.01
2023-05-12T18:14:55.348Z,17.00
2023-05-12T18:17:27.813Z,16.91
2023-05-12T18:20:02.176Z,16.78
2023-05-12T18:22:34.165Z,16.66
2023-05-12T18:25:04.791Z,16.61
2023-05-12T18:27:38.779Z,16.57
2023-05-12T18:30:11.598Z,16.53
2023-05-12T18:32:47.455Z,16.54
2023-05-12T18:35:26.790Z,16.58
2023-05-12T18:38:00.657Z,16.63
2023-05-12T18:40:31.705Z,16.68
2023-05-12T18:43:04.053Z,16.73
2023-05-12T18:45:35.894Z,16.79
2023-05-12T18:48:10.794Z,16.83
2023-05-12T18:50:41.659Z,16.85
2023-05-12T18:53:12.188Z,16.84
2023-05-12T18:55:43.946Z,16.83
2023-05-12T18:58:20.311Z,16.81
2023-05-12T19:00:50.839Z,16.79
2023-05-12T19:03:21.647Z,16.77
2023-05-12T19:05:52.540Z,16.76
2023-05-12T19:08:24.824Z,16.78
2023-05-12T19:11:01.661Z,16.80
2023-05-12T19:13:33.397Z,16.81
2023-05-12T19:16:04.128Z,16.77
2023-05-12T19:18:34.765Z,16.68
2023-05-12T19:21:09.335Z,16.60
2023-05-12T19:23:41.408Z,16.54
2023-05-12T19:26:15.241Z,16.52
2023-05-12T19:28:47.669Z,16.47
2023-05-12T19:31:24.120Z,16.38
2023-05-12T19:33:56.633Z,16.32
2023-05-12T19:36:30.144Z,16.25
2023-05-12T19:39:01.414Z,16.20
2023-05-12T19:41:41.347Z,16.10
2023-05-12T19:44:15.477Z,15.97
2023-05-12T19:47:02.908Z,15.85
2023-05-12T19:49:42.147Z,15.77
2023-05-12T19:52:30.211Z,15.70
2023-05-12T19:55:15.662Z,15.68
2023-05-12T19:57:54.422Z,15.70
2023-05-12T20:00:29.186Z,15.75
2023-05-12T20:03:06.304Z,15.81
2023-05-12T20:05:40.009Z,15.88
2023-05-12T20:08:13.568Z,15.94
2023-05-12T20:10:47.773Z,15.97
2023-05-12T20:13:24.670Z,16.01
2023-05-12T20:15:56.704Z,16.04
2023-05-12T20:18:31.304Z,16.05
2023-05-12T20:21:03.641Z,16.04
2023-05-12T20:23:42.685Z,16.01
2023-05-12T20:26:18.505Z,16.01
2023-05-12T20:28:54.476Z,16.00
2023-05-12T20:31:26.137Z,16.01
2023-05-12T20:34:02.856Z,16.00
2023-05-12T20:36:33.432Z,15.98
2023-05-12T20:39:09.550Z,15.97
2023-05-12T20:41:42.891Z,15.93
2023-05-12T20:44:14.517Z,15.93
2023-05-12T20:46:46.800Z,15.97
2023-05-12T20:49:21.192Z,15.98
2023-05-12T20:51:51.727Z,15.99
2023-05-12T20:54:22.444Z,16.02
2023-05-12T20:56:52.750Z,16.03
2023-05-12T20:59:24.520Z,16.08
2023-05-12T21:01:56.450Z,16.14
2023-05-12T21:04:32.067Z,16.19
2023-05-12T21:07:02.991Z,16.20
2023-05-12T21:09:35.228Z,16.21
2023-05-12T21:12:07.348Z,16.23
2023-05-12T21:14:41.367Z,16.22
2023-05-12T21:17:16.414Z,16.21
2023-05-12T21:19:47.005Z,16.21
2023-05-12T21:22:20.313Z,16.16
2023-05-12T21:24:52.196Z,16.14
2023-05-12T21:27:23.206Z,16.16
2023-05-12T21:30:00.899Z,16.17
2023-05-12T21:35:23.670Z,16.17
2023-05-12T21:37:56.186Z,16.14
2023-05-12T21:40:27.477Z,16.08
2023-05-12T21:42:58.790Z,16.04
2023-05-12T21:45:29.364Z,16.02
2023-05-12T21:47:59.953Z,15.98
2023-05-12T21:50:30.705Z,15.95
2023-05-12T21:53:03.535Z,15.94
2023-05-12T21:55:34.603Z,15.92
2023-05-12T21:58:05.836Z,15.92
2023-05-12T22:00:36.949Z,15.94
2023-05-12T22:03:08.837Z,15.97
2023-05-12T22:05:42.818Z,15.98
2023-05-12T22:08:13.832Z,15.99
2023-05-12T22:10:48.631Z,16.02
2023-05-12T22:13:21.829Z,16.07
2023-05-12T22:15:55.392Z,16.12
2023-05-12T22:18:27.361Z,16.17
2023-05-12T22:20:59.038Z,16.20
2023-05-12T22:23:35.199Z,16.21
2023-05-12T22:26:07.517Z,16.20
2023-05-12T22:28:37.978Z,16.23
2023-05-12T22:31:10.927Z,16.27
2023-05-12T22:33:51.593Z,16.30
2023-05-12T22:36:21.847Z,16.32
2023-05-12T22:38:57.998Z,16.34
2023-05-12T22:41:30.928Z,16.37
2023-05-12T22:44:01.480Z,16.41
2023-05-12T22:46:31.970Z,16.42
2023-05-12T22:49:02.137Z,16.42
2023-05-12T22:51:32.445Z,16.41
2023-05-12T22:54:02.808Z,16.40
2023-05-12T22:56:33.049Z,16.40
2023-05-12T22:59:03.475Z,16.41
2023-05-12T23:01:34.372Z,16.41
2023-05-12T23:04:05.172Z,16.42
2023-05-12T23:06:37.351Z,16.43
2023-05-12T23:09:09.600Z,16.43
2023-05-12T23:11:40.500Z,16.44
2023-05-12T23:14:11.770Z,16.44
2023-05-12T23:16:42.030Z,16.43
2023-05-12T23:19:12.655Z,16.43
2023-05-12T23:21:43.363Z,16.44
2023-05-12T23:24:13.849Z,16.43
2023-05-12T23:26:44.246Z,16.43
2023-05-12T23:29:15.209Z,16.42
2023-05-12T23:31:45.812Z,16.39
2023-05-12T23:34:16.296Z,16.32
2023-05-12T23:36:46.466Z,16.31
2023-05-12T23:39:17.081Z,16.31
2023-05-12T23:41:47.421Z,16.32
2023-05-12T23:44:17.984Z,16.33
2023-05-12T23:46:48.618Z,16.36
2023-05-12T23:49:18.854Z,16.40
2023-05-12T23:51:49.281Z,16.41
2023-05-12T23:54:19.982Z,16.42
2023-05-12T23:56:50.908Z,16.41
2023-05-12T23:59:21.225Z,16.41
